sensor_id;sensor_type;location;lat;lon;timestamp;temperature;humidity
4564;DHT22;2294;51.818;8.484;2023-02-01T00:00:28;7.10;99.90
4564;DHT22;2294;51.818;8.484;2023-02-01T00:02:55;7.00;99.90
4564;DHT22;2294;51.818;8.484;2023-02-01T00:05:22;7.00;99.90
4564;DHT22;2294;51.818;8.484;2023-02-01T00:07:49;7.10;99.90
4564;DHT22;2294;51.818;8.484;2023-02-01T00:10:16;7.20;99.90
4564;DHT22;2294;51.818;8.484;2023-02-01T00:12:44;7.10;99.90
4564;DHT22;2294;51.818;8.484;2023-02-01T00:15:11;7.20;99.90
4564;DHT22;2294;51.818;8.484;2023-02-01T00:17:39;7.20;99.90
4564;DHT22;2294;51.818;8.484;2023-02-01T00:20:07;7.00;99.90
4564;DHT22;2294;51.818;8.484;2023-02-01T00:22:34;7.00;99.90
4564;DHT22;2294;51.818;8.484;2023-02-01T00:25:01;7.10;99.90
4564;DHT22;2294;51.818;8.484;2023-02-01T00:27:28;7.10;99.90
4564;DHT22;2294;51.818;8.484;2023-02-01T00:29:55;7.10;99.90
4564;DHT22;2294;51.818;8.484;2023-02-01T00:32:22;7.10;99.90
4564;DHT22;2294;51.818;8.484;2023-02-01T00:34:50;7.10;99.90
4564;DHT22;2294;51.818;8.484;2023-02-01T00:37:17;7.20;99.90
4564;DHT22;2294;51.818;8.484;2023-02-01T00:39:44;7.20;99.90
4564;DHT22;2294;51.818;8.484;2023-02-01T00:42:11;7.10;99.90
4564;DHT22;2294;51.818;8.484;2023-02-01T00:44:38;7.20;99.90
4564;DHT22;2294;51.818;8.484;2023-02-01T00:47:04;7.20;99.90
4564;DHT22;2294;51.818;8.484;2023-02-01T00:49:31;7.00;99.90
4564;DHT22;2294;51.818;8.484;2023-02-01T00:51:59;7.00;99.90
4564;DHT22;2294;51.818;8.484;2023-02-01T00:54:26;7.10;99.90
4564;DHT22;2294;51.818;8.484;2023-02-01T00:56:53;7.10;99.90
4564;DHT22;2294;51.818;8.484;2023-02-01T00:59:20;7.20;99.90
4564;DHT22;2294;51.818;8.484;2023-02-01T01:01:47;7.20;99.90
4564;DHT22;2294;51.818;8.484;2023-02-01T01:04:14;7.30;99.90
4564;DHT22;2294;51.818;8.484;2023-02-01T01:06:41;7.20;99.90
4564;DHT22;2294;51.818;8.484;2023-02-01T01:09:09;7.20;99.90
4564;DHT22;2294;51.818;8.484;2023-02-01T01:11:37;7.10;99.90
4564;DHT22;2294;51.818;8.484;2023-02-01T01:14:05;7.40;99.90
4564;DHT22;2294;51.818;8.484;2023-02-01T01:16:32;7.50;99.90
4564;DHT22;2294;51.818;8.484;2023-02-01T01:18:59;7.50;99.90
4564;DHT22;2294;51.818;8.484;2023-02-01T01:21:27;7.50;99.90
4564;DHT22;2294;51.818;8.484;2023-02-01T01:23:54;7.60;99.90
4564;DHT22;2294;51.818;8.484;2023-02-01T01:26:24;7.50;99.90
4564;DHT22;2294;51.818;8.484;2023-02-01T01:28:51;7.60;99.90
4564;DHT22;2294;51.818;8.484;2023-02-01T01:31:20;7.50;99.90
4564;DHT22;2294;51.818;8.484;2023-02-01T01:33:51;7.50;99.90
4564;DHT22;2294;51.818;8.484;2023-02-01T01:36:18;7.50;99.90
4564;DHT22;2294;51.818;8.484;2023-02-01T01:38:45;7.70;99.90
4564;DHT22;2294;51.818;8.484;2023-02-01T01:41:14;7.70;99.90
4564;DHT22;2294;51.818;8.484;2023-02-01T01:43:49;7.70;99.90
4564;DHT22;2294;51.818;8.484;2023-02-01T01:46:17;7.70;99.90
4564;DHT22;2294;51.818;8.484;2023-02-01T01:48:45;7.70;99.90
4564;DHT22;2294;51.818;8.484;2023-02-01T01:51:17;7.80;99.90
4564;DHT22;2294;51.818;8.484;2023-02-01T01:53:50;7.90;99.90
4564;DHT22;2294;51.818;8.484;2023-02-01T01:56:21;7.90;99.90
4564;DHT22;2294;51.818;8.484;2023-02-01T01:58:49;7.90;99.90
4564;DHT22;2294;51.818;8.484;2023-02-01T02:01:16;7.90;99.90
4564;DHT22;2294;51.818;8.484;2023-02-01T02:03:44;8.00;99.90
4564;DHT22;2294;51.818;8.484;2023-02-01T02:06:18;8.00;99.90
4564;DHT22;2294;51.818;8.484;2023-02-01T02:08:46;8.00;99.90
4564;DHT22;2294;51.818;8.484;2023-02-01T02:11:16;8.00;99.90
4564;DHT22;2294;51.818;8.484;2023-02-01T02:13:46;8.10;99.90
4564;DHT22;2294;51.818;8.484;2023-02-01T02:16:27;8.10;99.90
4564;DHT22;2294;51.818;8.484;2023-02-01T02:19:14;8.10;99.90
4564;DHT22;2294;51.818;8.484;2023-02-01T02:21:56;8.10;99.90
4564;DHT22;2294;51.818;8.484;2023-02-01T02:24:49;8.10;99.90
4564;DHT22;2294;51.818;8.484;2023-02-01T02:27:32;8.20;99.90
4564;DHT22;2294;51.818;8.484;2023-02-01T02:30:37;8.20;99.90
4564;DHT22;2294;51.818;8.484;2023-02-01T02:36:32;8.00;99.90
4564;DHT22;2294;51.818;8.484;2023-02-01T02:39:06;8.10;99.90
4564;DHT22;2294;51.818;8.484;2023-02-01T02:41:43;7.90;99.90
4564;DHT22;2294;51.818;8.484;2023-02-01T02:44:35;7.90;99.90
4564;DHT22;2294;51.818;8.484;2023-02-01T02:47:29;7.90;99.90
4564;DHT22;2294;51.818;8.484;2023-02-01T02:50:05;7.90;99.90
4564;DHT22;2294;51.818;8.484;2023-02-01T02:53:00;7.80;99.90
4564;DHT22;2294;51.818;8.484;2023-02-01T02:55:46;7.70;99.90
4564;DHT22;2294;51.818;8.484;2023-02-01T02:58:13;7.70;99.90
4564;DHT22;2294;51.818;8.484;2023-02-01T03:04:21;7.60;99.90
4564;DHT22;2294;51.818;8.484;2023-02-01T03:06:49;7.50;99.90
4564;DHT22;2294;51.818;8.484;2023-02-01T03:09:21;7.40;99.90
4564;DHT22;2294;51.818;8.484;2023-02-01T03:11:51;7.50;99.90
4564;DHT22;2294;51.818;8.484;2023-02-01T03:14:41;7.50;99.90
4564;DHT22;2294;51.818;8.484;2023-02-01T03:17:13;7.50;99.90
4564;DHT22;2294;51.818;8.484;2023-02-01T03:19:43;7.40;99.90
4564;DHT22;2294;51.818;8.484;2023-02-01T03:22:15;7.40;99.90
4564;DHT22;2294;51.818;8.484;2023-02-01T03:24:46;7.50;99.90
4564;DHT22;2294;51.818;8.484;2023-02-01T03:27:17;7.40;99.90
4564;DHT22;2294;51.818;8.484;2023-02-01T03:29:47;7.50;99.90
4564;DHT22;2294;51.818;8.484;2023-02-01T03:32:16;7.40;99.90
4564;DHT22;2294;51.818;8.484;2023-02-01T03:34:43;7.40;99.90
4564;DHT22;2294;51.818;8.484;2023-02-01T03:37:12;7.40;99.90
4564;DHT22;2294;51.818;8.484;2023-02-01T03:39:47;7.40;99.90
4564;DHT22;2294;51.818;8.484;2023-02-01T03:42:18;7.30;99.90
4564;DHT22;2294;51.818;8.484;2023-02-01T03:44:50;7.30;99.90
4564;DHT22;2294;51.818;8.484;2023-02-01T03:47:21;7.30;99.90
4564;DHT22;2294;51.818;8.484;2023-02-01T03:49:52;7.40;99.90
4564;DHT22;2294;51.818;8.484;2023-02-01T03:52:23;7.40;99.90
4564;DHT22;2294;51.818;8.484;2023-02-01T03:54:54;7.40;99.90
4564;DHT22;2294;51.818;8.484;2023-02-01T03:57:26;7.40;99.90
4564;DHT22;2294;51.818;8.484;2023-02-01T03:59:54;7.40;99.90
4564;DHT22;2294;51.818;8.484;2023-02-01T04:02:29;7.40;99.90
4564;DHT22;2294;51.818;8.484;2023-02-01T04:04:56;7.40;99.90
4564;DHT22;2294;51.818;8.484;2023-02-01T04:07:23;7.40;99.90
4564;DHT22;2294;51.818;8.484;2023-02-01T04:09:50;7.40;99.90
4564;DHT22;2294;51.818;8.484;2023-02-01T04:12:18;7.40;99.90
4564;DHT22;2294;51.818;8.484;2023-02-01T04:14:45;7.40;99.90
4564;DHT22;2294;51.818;8.484;2023-02-01T04:17:11;7.40;99.90
4564;DHT22;2294;51.818;8.484;2023-02-01T04:19:38;7.50;99.90
4564;DHT22;2294;51.818;8.484;2023-02-01T04:22:05;7.40;99.90
4564;DHT22;2294;51.818;8.484;2023-02-01T04:24:32;7.40;99.90
4564;DHT22;2294;51.818;8.484;2023-02-01T04:26:59;7.40;99.90
4564;DHT22;2294;51.818;8.484;2023-02-01T04:29:29;7.40;99.90
4564;DHT22;2294;51.818;8.484;2023-02-01T04:31:56;7.40;99.90
4564;DHT22;2294;51.818;8.484;2023-02-01T04:34:23;7.40;99.90
4564;DHT22;2294;51.818;8.484;2023-02-01T04:36:50;7.40;99.90
4564;DHT22;2294;51.818;8.484;2023-02-01T04:39:17;7.50;99.90
4564;DHT22;2294;51.818;8.484;2023-02-01T04:41:44;7.50;99.90
4564;DHT22;2294;51.818;8.484;2023-02-01T04:44:13;7.50;99.90
4564;DHT22;2294;51.818;8.484;2023-02-01T04:46:43;7.50;99.90
4564;DHT22;2294;51.818;8.484;2023-02-01T04:49:10;7.50;99.90
4564;DHT22;2294;51.818;8.484;2023-02-01T04:51:38;7.40;99.90
4564;DHT22;2294;51.818;8.484;2023-02-01T04:54:05;7.50;99.90
4564;DHT22;2294;51.818;8.484;2023-02-01T04:56:32;7.50;99.90
4564;DHT22;2294;51.818;8.484;2023-02-01T04:59:00;7.60;99.90
4564;DHT22;2294;51.818;8.484;2023-02-01T05:01:28;7.60;99.90
4564;DHT22;2294;51.818;8.484;2023-02-01T05:03:56;7.80;99.90
4564;DHT22;2294;51.818;8.484;2023-02-01T05:06:23;7.60;99.90
4564;DHT22;2294;51.818;8.484;2023-02-01T05:08:50;7.60;99.90
4564;DHT22;2294;51.818;8.484;2023-02-01T05:11:17;7.50;99.90
4564;DHT22;2294;51.818;8.484;2023-02-01T05:13:58;7.50;99.90
4564;DHT22;2294;51.818;8.484;2023-02-01T05:16:25;7.60;99.90
4564;DHT22;2294;51.818;8.484;2023-02-01T05:18:52;7.60;99.90
4564;DHT22;2294;51.818;8.484;2023-02-01T05:21:21;7.60;99.90
4564;DHT22;2294;51.818;8.484;2023-02-01T05:23:48;7.50;99.90
4564;DHT22;2294;51.818;8.484;2023-02-01T05:26:32;7.50;99.90
4564;DHT22;2294;51.818;8.484;2023-02-01T05:29:00;7.60;99.90
4564;DHT22;2294;51.818;8.484;2023-02-01T05:31:26;7.50;99.90
4564;DHT22;2294;51.818;8.484;2023-02-01T05:33:53;7.50;99.90
4564;DHT22;2294;51.818;8.484;2023-02-01T05:36:22;7.50;99.90
4564;DHT22;2294;51.818;8.484;2023-02-01T05:38:48;7.50;99.90
4564;DHT22;2294;51.818;8.484;2023-02-01T05:41:15;7.50;99.90
4564;DHT22;2294;51.818;8.484;2023-02-01T05:43:42;7.60;99.90
4564;DHT22;2294;51.818;8.484;2023-02-01T05:46:09;7.50;99.90
4564;DHT22;2294;51.818;8.484;2023-02-01T05:48:38;7.50;99.90
4564;DHT22;2294;51.818;8.484;2023-02-01T05:51:05;7.60;99.90
4564;DHT22;2294;51.818;8.484;2023-02-01T05:53:33;7.50;99.90
4564;DHT22;2294;51.818;8.484;2023-02-01T05:56:00;7.50;99.90
4564;DHT22;2294;51.818;8.484;2023-02-01T05:58:27;7.60;99.90
4564;DHT22;2294;51.818;8.484;2023-02-01T06:00:54;7.60;99.90
4564;DHT22;2294;51.818;8.484;2023-02-01T06:03:21;7.50;99.90
4564;DHT22;2294;51.818;8.484;2023-02-01T06:05:48;7.60;99.90
4564;DHT22;2294;51.818;8.484;2023-02-01T06:08:15;7.60;99.90
4564;DHT22;2294;51.818;8.484;2023-02-01T06:10:44;7.50;99.90
4564;DHT22;2294;51.818;8.484;2023-02-01T06:13:11;7.50;99.90
4564;DHT22;2294;51.818;8.484;2023-02-01T06:15:37;7.50;99.90
4564;DHT22;2294;51.818;8.484;2023-02-01T06:18:07;7.50;99.90
4564;DHT22;2294;51.818;8.484;2023-02-01T06:20:33;7.60;99.90
4564;DHT22;2294;51.818;8.484;2023-02-01T06:23:00;7.50;99.90
4564;DHT22;2294;51.818;8.484;2023-02-01T06:25:27;7.60;99.90
4564;DHT22;2294;51.818;8.484;2023-02-01T06:27:55;7.60;99.90
4564;DHT22;2294;51.818;8.484;2023-02-01T06:30:26;7.60;99.90
4564;DHT22;2294;51.818;8.484;2023-02-01T06:32:53;7.50;99.90
4564;DHT22;2294;51.818;8.484;2023-02-01T06:35:20;7.60;99.90
4564;DHT22;2294;51.818;8.484;2023-02-01T06:37:47;7.60;99.90
4564;DHT22;2294;51.818;8.484;2023-02-01T06:40:14;7.60;99.90
4564;DHT22;2294;51.818;8.484;2023-02-01T06:42:41;7.60;99.90
4564;DHT22;2294;51.818;8.484;2023-02-01T06:45:10;7.60;99.90
4564;DHT22;2294;51.818;8.484;2023-02-01T06:47:37;7.60;99.90
4564;DHT22;2294;51.818;8.484;2023-02-01T06:50:05;7.60;99.90
4564;DHT22;2294;51.818;8.484;2023-02-01T06:52:32;7.60;99.90
4564;DHT22;2294;51.818;8.484;2023-02-01T06:54:59;7.60;99.90
4564;DHT22;2294;51.818;8.484;2023-02-01T06:57:25;7.60;99.90
4564;DHT22;2294;51.818;8.484;2023-02-01T06:59:55;7.50;99.90
4564;DHT22;2294;51.818;8.484;2023-02-01T07:02:25;7.50;99.90
4564;DHT22;2294;51.818;8.484;2023-02-01T07:04:52;7.60;99.90
4564;DHT22;2294;51.818;8.484;2023-02-01T07:07:19;7.60;99.90
4564;DHT22;2294;51.818;8.484;2023-02-01T07:09:48;7.60;99.90
4564;DHT22;2294;51.818;8.484;2023-02-01T07:12:15;7.60;99.90
4564;DHT22;2294;51.818;8.484;2023-02-01T07:14:42;7.60;99.90
4564;DHT22;2294;51.818;8.484;2023-02-01T07:17:09;7.60;99.90
4564;DHT22;2294;51.818;8.484;2023-02-01T07:19:37;7.60;99.90
4564;DHT22;2294;51.818;8.484;2023-02-01T07:22:04;7.60;99.90
4564;DHT22;2294;51.818;8.484;2023-02-01T07:24:31;7.60;99.90
4564;DHT22;2294;51.818;8.484;2023-02-01T07:26:58;7.60;99.90
4564;DHT22;2294;51.818;8.484;2023-02-01T07:29:24;7.60;99.90
4564;DHT22;2294;51.818;8.484;2023-02-01T07:31:51;7.60;99.90
4564;DHT22;2294;51.818;8.484;2023-02-01T07:34:18;7.60;99.90
4564;DHT22;2294;51.818;8.484;2023-02-01T07:36:47;7.60;99.90
4564;DHT22;2294;51.818;8.484;2023-02-01T07:39:13;7.50;99.90
4564;DHT22;2294;51.818;8.484;2023-02-01T07:41:40;7.60;99.90
4564;DHT22;2294;51.818;8.484;2023-02-01T07:44:07;7.60;99.90
4564;DHT22;2294;51.818;8.484;2023-02-01T07:46:34;7.70;99.90
4564;DHT22;2294;51.818;8.484;2023-02-01T07:49:01;7.60;99.90
4564;DHT22;2294;51.818;8.484;2023-02-01T07:51:28;7.60;99.90
4564;DHT22;2294;51.818;8.484;2023-02-01T07:53:57;7.60;99.90
4564;DHT22;2294;51.818;8.484;2023-02-01T07:56:24;7.60;99.90
4564;DHT22;2294;51.818;8.484;2023-02-01T07:58:53;7.60;99.90
4564;DHT22;2294;51.818;8.484;2023-02-01T08:01:23;7.60;99.90
4564;DHT22;2294;51.818;8.484;2023-02-01T08:03:52;7.60;99.90
4564;DHT22;2294;51.818;8.484;2023-02-01T08:06:20;7.60;99.90
4564;DHT22;2294;51.818;8.484;2023-02-01T08:08:48;7.60;99.90
4564;DHT22;2294;51.818;8.484;2023-02-01T08:11:17;7.60;99.90
4564;DHT22;2294;51.818;8.484;2023-02-01T08:13:44;7.60;99.90
4564;DHT22;2294;51.818;8.484;2023-02-01T08:16:13;7.70;99.90
4564;DHT22;2294;51.818;8.484;2023-02-01T08:18:40;7.70;99.90
4564;DHT22;2294;51.818;8.484;2023-02-01T08:21:10;7.70;99.90
4564;DHT22;2294;51.818;8.484;2023-02-01T08:23:37;7.80;99.90
4564;DHT22;2294;51.818;8.484;2023-02-01T08:26:07;7.70;99.90
4564;DHT22;2294;51.818;8.484;2023-02-01T08:31:09;7.80;99.90
4564;DHT22;2294;51.818;8.484;2023-02-01T08:33:37;7.80;99.90
4564;DHT22;2294;51.818;8.484;2023-02-01T08:36:05;7.80;99.90
4564;DHT22;2294;51.818;8.484;2023-02-01T08:38:32;7.80;99.90
4564;DHT22;2294;51.818;8.484;2023-02-01T08:41:04;7.80;99.90
4564;DHT22;2294;51.818;8.484;2023-02-01T08:43:32;7.80;99.90
4564;DHT22;2294;51.818;8.484;2023-02-01T08:45:58;7.80;99.90
4564;DHT22;2294;51.818;8.484;2023-02-01T08:48:27;7.90;99.90
4564;DHT22;2294;51.818;8.484;2023-02-01T08:50:54;7.90;99.90
4564;DHT22;2294;51.818;8.484;2023-02-01T08:53:20;7.90;99.90
4564;DHT22;2294;51.818;8.484;2023-02-01T08:55:47;7.90;99.90
4564;DHT22;2294;51.818;8.484;2023-02-01T08:58:14;8.00;99.90
4564;DHT22;2294;51.818;8.484;2023-02-01T09:00:42;8.00;99.90
4564;DHT22;2294;51.818;8.484;2023-02-01T09:03:10;8.00;99.90
4564;DHT22;2294;51.818;8.484;2023-02-01T09:05:39;8.00;99.90
4564;DHT22;2294;51.818;8.484;2023-02-01T09:08:06;8.00;99.90
4564;DHT22;2294;51.818;8.484;2023-02-01T09:10:34;8.00;99.90
4564;DHT22;2294;51.818;8.484;2023-02-01T09:13:01;8.00;99.90
4564;DHT22;2294;51.818;8.484;2023-02-01T09:15:28;8.00;99.90
4564;DHT22;2294;51.818;8.484;2023-02-01T09:17:55;8.00;99.90
4564;DHT22;2294;51.818;8.484;2023-02-01T09:20:22;8.00;99.90
4564;DHT22;2294;51.818;8.484;2023-02-01T09:22:51;8.00;99.90
4564;DHT22;2294;51.818;8.484;2023-02-01T09:25:18;8.00;99.90
4564;DHT22;2294;51.818;8.484;2023-02-01T09:27:45;8.00;99.90
4564;DHT22;2294;51.818;8.484;2023-02-01T09:30:12;7.90;99.90
4564;DHT22;2294;51.818;8.484;2023-02-01T09:32:39;7.90;99.90
4564;DHT22;2294;51.818;8.484;2023-02-01T09:35:07;7.90;99.90
4564;DHT22;2294;51.818;8.484;2023-02-01T09:37:34;7.90;99.90
4564;DHT22;2294;51.818;8.484;2023-02-01T09:40:03;8.00;99.90
4564;DHT22;2294;51.818;8.484;2023-02-01T09:42:54;8.00;99.90
4564;DHT22;2294;51.818;8.484;2023-02-01T09:45:29;7.90;99.90
4564;DHT22;2294;51.818;8.484;2023-02-01T09:48:07;8.00;99.90
4564;DHT22;2294;51.818;8.484;2023-02-01T09:50:37;8.00;99.90
4564;DHT22;2294;51.818;8.484;2023-02-01T09:53:09;8.10;99.90
4564;DHT22;2294;51.818;8.484;2023-02-01T09:55:41;8.00;99.90
4564;DHT22;2294;51.818;8.484;2023-02-01T09:58:15;8.00;99.90
4564;DHT22;2294;51.818;8.484;2023-02-01T10:00:50;8.10;99.90
4564;DHT22;2294;51.818;8.484;2023-02-01T10:03:17;8.10;99.90
4564;DHT22;2294;51.818;8.484;2023-02-01T10:06:06;8.10;99.90
4564;DHT22;2294;51.818;8.484;2023-02-01T10:08:51;8.10;99.90
4564;DHT22;2294;51.818;8.484;2023-02-01T10:11:30;8.10;99.90
4564;DHT22;2294;51.818;8.484;2023-02-01T10:14:26;8.10;99.90
4564;DHT22;2294;51.818;8.484;2023-02-01T10:17:03;8.10;99.90
4564;DHT22;2294;51.818;8.484;2023-02-01T10:19:39;8.30;99.90
4564;DHT22;2294;51.818;8.484;2023-02-01T10:22:13;8.30;99.90
4564;DHT22;2294;51.818;8.484;2023-02-01T10:24:47;8.30;99.90
4564;DHT22;2294;51.818;8.484;2023-02-01T10:27:28;8.40;99.90
4564;DHT22;2294;51.818;8.484;2023-02-01T10:29:59;8.40;99.90
4564;DHT22;2294;51.818;8.484;2023-02-01T10:32:30;8.30;99.90
4564;DHT22;2294;51.818;8.484;2023-02-01T10:34:59;8.40;99.90
4564;DHT22;2294;51.818;8.484;2023-02-01T10:37:28;8.30;99.90
4564;DHT22;2294;51.818;8.484;2023-02-01T10:39:57;8.30;99.90
4564;DHT22;2294;51.818;8.484;2023-02-01T10:42:28;8.30;99.90
4564;DHT22;2294;51.818;8.484;2023-02-01T10:44:59;8.40;99.90
4564;DHT22;2294;51.818;8.484;2023-02-01T10:47:28;8.30;99.90
4564;DHT22;2294;51.818;8.484;2023-02-01T10:50:02;8.20;99.90
4564;DHT22;2294;51.818;8.484;2023-02-01T10:52:36;8.10;99.90
4564;DHT22;2294;51.818;8.484;2023-02-01T10:58:16;8.20;99.90
4564;DHT22;2294;51.818;8.484;2023-02-01T11:00:47;8.20;99.90
4564;DHT22;2294;51.818;8.484;2023-02-01T11:03:22;8.20;99.90
4564;DHT22;2294;51.818;8.484;2023-02-01T11:05:57;8.20;99.90
4564;DHT22;2294;51.818;8.484;2023-02-01T11:08:24;8.30;99.90
4564;DHT22;2294;51.818;8.484;2023-02-01T11:10:58;8.40;99.90
4564;DHT22;2294;51.818;8.484;2023-02-01T11:13:31;8.30;99.90
4564;DHT22;2294;51.818;8.484;2023-02-01T11:16:02;8.30;99.90
4564;DHT22;2294;51.818;8.484;2023-02-01T11:18:33;8.30;99.90
4564;DHT22;2294;51.818;8.484;2023-02-01T11:21:02;8.30;99.90
4564;DHT22;2294;51.818;8.484;2023-02-01T11:23:31;8.30;99.90
4564;DHT22;2294;51.818;8.484;2023-02-01T11:26:09;8.20;99.90
4564;DHT22;2294;51.818;8.484;2023-02-01T11:28:39;8.30;99.90
4564;DHT22;2294;51.818;8.484;2023-02-01T11:31:10;8.30;99.90
4564;DHT22;2294;51.818;8.484;2023-02-01T11:33:41;8.20;99.90
4564;DHT22;2294;51.818;8.484;2023-02-01T11:36:13;8.20;99.90
4564;DHT22;2294;51.818;8.484;2023-02-01T11:38:46;8.20;99.90
4564;DHT22;2294;51.818;8.484;2023-02-01T11:41:20;8.20;99.90
4564;DHT22;2294;51.818;8.484;2023-02-01T11:43:54;8.20;99.90
4564;DHT22;2294;51.818;8.484;2023-02-01T11:46:26;8.20;99.90
4564;DHT22;2294;51.818;8.484;2023-02-01T11:48:55;8.20;99.90
4564;DHT22;2294;51.818;8.484;2023-02-01T11:51:37;8.20;99.90
4564;DHT22;2294;51.818;8.484;2023-02-01T11:54:17;8.20;99.90
4564;DHT22;2294;51.818;8.484;2023-02-01T11:56:59;8.20;99.90
4564;DHT22;2294;51.818;8.484;2023-02-01T11:59:51;8.10;99.90
4564;DHT22;2294;51.818;8.484;2023-02-01T12:05:29;8.10;99.90
4564;DHT22;2294;51.818;8.484;2023-02-01T12:08:08;8.10;99.90
4564;DHT22;2294;51.818;8.484;2023-02-01T12:10:47;8.10;99.90
4564;DHT22;2294;51.818;8.484;2023-02-01T12:13:32;8.10;99.90
4564;DHT22;2294;51.818;8.484;2023-02-01T12:16:11;8.10;99.90
4564;DHT22;2294;51.818;8.484;2023-02-01T12:18:57;8.10;99.90
4564;DHT22;2294;51.818;8.484;2023-02-01T12:21:39;8.20;99.90
4564;DHT22;2294;51.818;8.484;2023-02-01T12:27:19;8.20;99.90
4564;DHT22;2294;51.818;8.484;2023-02-01T12:30:10;8.20;99.90
4564;DHT22;2294;51.818;8.484;2023-02-01T12:32:53;8.30;99.90
4564;DHT22;2294;51.818;8.484;2023-02-01T12:35:42;8.30;99.90
4564;DHT22;2294;51.818;8.484;2023-02-01T12:38:20;8.30;99.90
4564;DHT22;2294;51.818;8.484;2023-02-01T12:41:02;8.40;99.90
4564;DHT22;2294;51.818;8.484;2023-02-01T12:43:38;8.50;99.90
4564;DHT22;2294;51.818;8.484;2023-02-01T12:46:09;8.40;99.90
4564;DHT22;2294;51.818;8.484;2023-02-01T12:48:42;8.40;99.90
4564;DHT22;2294;51.818;8.484;2023-02-01T12:51:15;8.40;99.90
4564;DHT22;2294;51.818;8.484;2023-02-01T12:53:46;8.60;99.90
4564;DHT22;2294;51.818;8.484;2023-02-01T12:56:18;8.60;99.90
4564;DHT22;2294;51.818;8.484;2023-02-01T12:58:50;8.60;99.90
4564;DHT22;2294;51.818;8.484;2023-02-01T13:01:22;8.60;99.90
4564;DHT22;2294;51.818;8.484;2023-02-01T13:03:59;8.60;99.90
4564;DHT22;2294;51.818;8.484;2023-02-01T13:06:35;8.50;99.90
4564;DHT22;2294;51.818;8.484;2023-02-01T13:09:09;8.60;99.90
4564;DHT22;2294;51.818;8.484;2023-02-01T13:11:43;8.70;99.90
4564;DHT22;2294;51.818;8.484;2023-02-01T13:14:20;8.70;99.90
4564;DHT22;2294;51.818;8.484;2023-02-01T13:16:52;8.80;99.90
4564;DHT22;2294;51.818;8.484;2023-02-01T13:19:26;8.90;99.90
4564;DHT22;2294;51.818;8.484;2023-02-01T13:21:56;9.00;99.90
4564;DHT22;2294;51.818;8.484;2023-02-01T13:24:33;9.10;99.90
4564;DHT22;2294;51.818;8.484;2023-02-01T13:27:02;9.20;99.90
4564;DHT22;2294;51.818;8.484;2023-02-01T13:29:30;9.10;99.90
4564;DHT22;2294;51.818;8.484;2023-02-01T13:35:15;9.20;99.90
4564;DHT22;2294;51.818;8.484;2023-02-01T13:38:15;9.20;99.90
4564;DHT22;2294;51.818;8.484;2023-02-01T13:40:49;9.30;99.90
4564;DHT22;2294;51.818;8.484;2023-02-01T13:43:24;9.30;99.90
4564;DHT22;2294;51.818;8.484;2023-02-01T13:45:56;9.40;99.90
4564;DHT22;2294;51.818;8.484;2023-02-01T13:48:27;9.40;99.90
4564;DHT22;2294;51.818;8.484;2023-02-01T13:50:57;9.60;99.90
4564;DHT22;2294;51.818;8.484;2023-02-01T13:53:29;9.50;99.90
4564;DHT22;2294;51.818;8.484;2023-02-01T13:55:59;9.60;99.90
4564;DHT22;2294;51.818;8.484;2023-02-01T13:58:32;9.50;99.90
4564;DHT22;2294;51.818;8.484;2023-02-01T14:04:47;9.60;99.90
4564;DHT22;2294;51.818;8.484;2023-02-01T14:07:22;9.60;99.90
4564;DHT22;2294;51.818;8.484;2023-02-01T14:09:49;9.50;99.90
4564;DHT22;2294;51.818;8.484;2023-02-01T14:12:47;9.50;99.90
4564;DHT22;2294;51.818;8.484;2023-02-01T14:15:26;9.40;99.90
4564;DHT22;2294;51.818;8.484;2023-02-01T14:17:53;9.30;99.90
4564;DHT22;2294;51.818;8.484;2023-02-01T14:20:45;9.40;99.90
4564;DHT22;2294;51.818;8.484;2023-02-01T14:23:40;9.40;99.90
4564;DHT22;2294;51.818;8.484;2023-02-01T14:26:19;9.50;99.90
4564;DHT22;2294;51.818;8.484;2023-02-01T14:28:54;9.40;99.90
4564;DHT22;2294;51.818;8.484;2023-02-01T14:31:41;9.40;99.90
4564;DHT22;2294;51.818;8.484;2023-02-01T14:34:17;9.40;99.90
4564;DHT22;2294;51.818;8.484;2023-02-01T14:36:50;9.30;99.90
4564;DHT22;2294;51.818;8.484;2023-02-01T14:39:37;9.30;99.90
4564;DHT22;2294;51.818;8.484;2023-02-01T14:42:18;9.30;99.90
4564;DHT22;2294;51.818;8.484;2023-02-01T14:44:47;9.20;99.90
4564;DHT22;2294;51.818;8.484;2023-02-01T14:47:33;9.20;99.90
4564;DHT22;2294;51.818;8.484;2023-02-01T14:50:30;9.20;99.90
4564;DHT22;2294;51.818;8.484;2023-02-01T14:53:06;9.00;99.90
4564;DHT22;2294;51.818;8.484;2023-02-01T14:55:41;9.00;99.90
4564;DHT22;2294;51.818;8.484;2023-02-01T14:58:16;9.10;99.90
4564;DHT22;2294;51.818;8.484;2023-02-01T15:00:50;9.20;99.90
4564;DHT22;2294;51.818;8.484;2023-02-01T15:03:43;9.20;99.90
4564;DHT22;2294;51.818;8.484;2023-02-01T15:06:24;9.20;99.90
4564;DHT22;2294;51.818;8.484;2023-02-01T15:08:54;9.20;99.90
4564;DHT22;2294;51.818;8.484;2023-02-01T15:11:24;9.10;99.90
4564;DHT22;2294;51.818;8.484;2023-02-01T15:13:52;7.80;99.90
4564;DHT22;2294;51.818;8.484;2023-02-01T15:16:22;7.10;99.90
4564;DHT22;2294;51.818;8.484;2023-02-01T15:18:49;6.60;99.90
4564;DHT22;2294;51.818;8.484;2023-02-01T15:21:18;6.90;99.90
4564;DHT22;2294;51.818;8.484;2023-02-01T15:23:45;7.40;99.90
4564;DHT22;2294;51.818;8.484;2023-02-01T15:26:26;7.80;99.90
4564;DHT22;2294;51.818;8.484;2023-02-01T15:28:55;8.10;99.90
4564;DHT22;2294;51.818;8.484;2023-02-01T15:31:33;8.20;99.90
4564;DHT22;2294;51.818;8.484;2023-02-01T15:34:01;8.30;99.90
4564;DHT22;2294;51.818;8.484;2023-02-01T15:36:27;8.70;99.90
4564;DHT22;2294;51.818;8.484;2023-02-01T15:39:15;8.90;99.90
4564;DHT22;2294;51.818;8.484;2023-02-01T15:41:47;9.50;99.90
4564;DHT22;2294;51.818;8.484;2023-02-01T15:44:19;10.10;99.90
4564;DHT22;2294;51.818;8.484;2023-02-01T15:46:49;10.20;99.90
4564;DHT22;2294;51.818;8.484;2023-02-01T15:49:20;10.20;99.90
4564;DHT22;2294;51.818;8.484;2023-02-01T15:51:50;10.30;99.90
4564;DHT22;2294;51.818;8.484;2023-02-01T15:54:19;10.60;99.90
4564;DHT22;2294;51.818;8.484;2023-02-01T15:56:52;10.90;99.90
4564;DHT22;2294;51.818;8.484;2023-02-01T15:59:21;10.90;99.90
4564;DHT22;2294;51.818;8.484;2023-02-01T16:01:49;10.90;99.90
4564;DHT22;2294;51.818;8.484;2023-02-01T16:04:19;10.90;99.90
4564;DHT22;2294;51.818;8.484;2023-02-01T16:06:49;10.90;99.90
4564;DHT22;2294;51.818;8.484;2023-02-01T16:09:18;10.80;99.90
4564;DHT22;2294;51.818;8.484;2023-02-01T16:11:57;10.60;99.90
4564;DHT22;2294;51.818;8.484;2023-02-01T16:14:25;10.20;99.90
4564;DHT22;2294;51.818;8.484;2023-02-01T16:16:54;10.00;99.90
4564;DHT22;2294;51.818;8.484;2023-02-01T16:19:21;9.90;99.90
4564;DHT22;2294;51.818;8.484;2023-02-01T16:21:53;9.80;99.90
4564;DHT22;2294;51.818;8.484;2023-02-01T16:24:20;9.70;99.90
4564;DHT22;2294;51.818;8.484;2023-02-01T16:26:49;9.60;99.90
4564;DHT22;2294;51.818;8.484;2023-02-01T16:29:16;9.60;99.90
4564;DHT22;2294;51.818;8.484;2023-02-01T16:31:43;9.60;99.90
4564;DHT22;2294;51.818;8.484;2023-02-01T16:34:14;9.40;99.90
4564;DHT22;2294;51.818;8.484;2023-02-01T16:36:42;9.30;99.90
4564;DHT22;2294;51.818;8.484;2023-02-01T16:39:11;9.40;99.90
4564;DHT22;2294;51.818;8.484;2023-02-01T16:41:39;9.40;99.90
4564;DHT22;2294;51.818;8.484;2023-02-01T16:44:07;9.50;99.90
4564;DHT22;2294;51.818;8.484;2023-02-01T16:46:42;9.50;99.90
4564;DHT22;2294;51.818;8.484;2023-02-01T16:49:18;9.50;99.90
4564;DHT22;2294;51.818;8.484;2023-02-01T16:51:47;9.60;99.90
4564;DHT22;2294;51.818;8.484;2023-02-01T16:54:15;9.40;99.90
4564;DHT22;2294;51.818;8.484;2023-02-01T16:56:42;9.30;99.90
4564;DHT22;2294;51.818;8.484;2023-02-01T16:59:10;9.10;99.90
4564;DHT22;2294;51.818;8.484;2023-02-01T17:01:38;9.00;99.90
4564;DHT22;2294;51.818;8.484;2023-02-01T17:04:07;8.90;99.90
4564;DHT22;2294;51.818;8.484;2023-02-01T17:06:35;8.80;99.90
4564;DHT22;2294;51.818;8.484;2023-02-01T17:09:03;8.70;99.90